Pagrindinis puslapis
METAR-TAF:

METAR-TAF

Oro uostai :

Tambakunda, Senegalas

platuma: 13-46N, ilguma: 013-41W, Aukštis: 49 m

Dabartinis oras

Ataskaita buvo paskelbta 1 valandą ir 0 minutes, ne 20:00 UTC
Vėjas 4 kt iš Pietų
Temperatūra 31°C
Drėgmė 79%
Slėgis 1009 hPa
Matomumas 10 km arba daugiau
nėra debesų žemiau 1500 m ir nėra kamuolinių lietaus debesų

METAR: GOTT 292000Z 18004KT CAVOK 31/27 Q1009

Laikas: 21:00 (21:00 UTC)


TAF: trūkstamas

Orai ataskaitas ir orų prognozės (METAR, TAF).

turimą stotys yra geltonos ir raudonos taškus žemėlapyje.

Perkelti pele per norėdami pamatyti stoties vardą.

Tada spustelėkite, norėdami matyti oro stebėjimo ir prognozės.

Norėdami pakeisti žemėlapį: spustelėkite ant žalios mygtukų su juodo kryžiaus žemyn,; žalią mygtuką su brūkšneliu, jei norite nutolinti; arba žalių rodyklių gretimoms žemėlapius.


METAR-TAF: